PWSweather.com
Personal Weather Stations
Station Observations
AC5CV
Greenleaf Peninsula, Waco, TX 76710

Greenleaf PeninsulaWaco, TX 76710

Lat: 31.565, Lon: -97.198

Elevation: 570

Station Type: Ambient WS2080

http://johnchamber.dyndns.info/

High Low Average
Temperature 94.3°F34.6°C 77.2°F25.1°C 86.0°F30.0°C
Dew Point 72.8°F22.7°C 61.4°F16.3°C 67.6°F19.8°C
Winds 9.7 mph 15.6 kmh 0.1 mph 0.2 kmh 4.0 mph S6.4 kmh S
Wind Gusts 19.9 mph32.0 kmh 2.5 mph4.0 kmh 8.0 mph12.9 kmh
Humidity 84% 34% 57%
Pressure 29.49 in998.6 mb 29.39 in995.3 mb -
Precipitation 0.00 in0.0 mm - -
Hour Temp Dew Point Humidity Winds Wind Gusts Pressure Precip Precip Rate Daily Precip Total
12:00 AM 84.0°F28.9°C 69.1°F20.6°C 61% 7.8 mph SE12.6 kmh SE 15.0 mph24.1 kmh 29.44 in997.0 mb 0.00 in0.0 mm 0.00 in0.0 mm 0.00 in0.0 mm
12:05 AM 84.0°F28.9°C 69.5°F20.8°C 62% 6.5 mph SSE10.5 kmh SSE 9.8 mph15.8 kmh 29.44 in997.0 mb 0.00 in0.0 mm 0.00 in0.0 mm 0.00 in0.0 mm
12:10 AM 83.8°F28.8°C 69.6°F20.9°C 62% 9.7 mph SSE15.6 kmh SSE 12.3 mph19.8 kmh 29.44 in997.0 mb 0.00 in0.0 mm 0.00 in0.0 mm 0.00 in0.0 mm
12:15 AM 83.7°F28.7°C 69.7°F20.9°C 63% 7.4 mph SSE11.9 kmh SSE 12.3 mph19.8 kmh 29.44 in997.0 mb 0.00 in0.0 mm 0.00 in0.0 mm 0.00 in0.0 mm
12:20 AM 83.6°F28.7°C 69.7°F20.9°C 63% 4.2 mph SSE6.8 kmh SSE 9.8 mph15.8 kmh 29.44 in997.0 mb 0.00 in0.0 mm 0.00 in0.0 mm 0.00 in0.0 mm
12:25 AM 83.5°F28.6°C 69.9°F21.1°C 64% 7.9 mph S12.7 kmh S 15.0 mph24.1 kmh 29.44 in997.0 mb 0.00 in0.0 mm 0.00 in0.0 mm 0.00 in0.0 mm
12:30 AM 83.3°F28.5°C 69.9°F21.1°C 64% 5.0 mph SSE8.0 kmh SSE 12.3 mph19.8 kmh 29.44 in997.0 mb 0.00 in0.0 mm 0.00 in0.0 mm 0.00 in0.0 mm
12:35 AM 83.2°F28.4°C 70.1°F21.2°C 65% 4.3 mph S6.9 kmh S 9.8 mph15.8 kmh 29.44 in997.0 mb 0.00 in0.0 mm 0.00 in0.0 mm 0.00 in0.0 mm
12:40 AM 83.1°F28.4°C 70.1°F21.2°C 65% 5.0 mph SSE8.0 kmh SSE 7.4 mph11.9 kmh 29.44 in997.0 mb 0.00 in0.0 mm 0.00 in0.0 mm 0.00 in0.0 mm
12:45 AM 83.0°F28.3°C 70.0°F21.1°C 65% 5.4 mph SSE8.7 kmh SSE 7.4 mph11.9 kmh 29.44 in997.0 mb 0.00 in0.0 mm 0.00 in0.0 mm 0.00 in0.0 mm
12:50 AM 82.9°F28.3°C 70.1°F21.2°C 65% 3.4 mph S5.5 kmh S 9.8 mph15.8 kmh 29.44 in997.0 mb 0.00 in0.0 mm 0.00 in0.0 mm 0.00 in0.0 mm
12:55 AM 82.9°F28.3°C 70.3°F21.3°C 66% 5.6 mph SSE9.0 kmh SSE 12.3 mph19.8 kmh 29.44 in997.0 mb 0.00 in0.0 mm 0.00 in0.0 mm 0.00 in0.0 mm
01:00 AM 82.8°F28.2°C 70.3°F21.3°C 66% 4.5 mph SSE7.2 kmh SSE 9.8 mph15.8 kmh 29.44 in997.0 mb 0.00 in0.0 mm 0.00 in0.0 mm 0.00 in0.0 mm
01:05 AM 82.7°F28.2°C 70.4°F21.3°C 66% 4.4 mph S7.1 kmh S 7.4 mph11.9 kmh 29.44 in997.0 mb 0.00 in0.0 mm 0.00 in0.0 mm 0.00 in0.0 mm
01:10 AM 82.6°F28.1°C 70.6°F21.4°C 67% 3.3 mph SSE5.3 kmh SSE 7.4 mph11.9 kmh 29.44 in997.0 mb 0.00 in0.0 mm 0.00 in0.0 mm 0.00 in0.0 mm
01:15 AM 82.5°F28.1°C 71.0°F21.7°C 68% 3.5 mph SE5.6 kmh SE 7.4 mph11.9 kmh 29.44 in997.0 mb 0.00 in0.0 mm 0.00 in0.0 mm 0.00 in0.0 mm
01:20 AM 82.3°F27.9°C 71.1°F21.7°C 69% 3.7 mph S6.0 kmh S 12.3 mph19.8 kmh 29.45 in997.3 mb 0.00 in0.0 mm 0.00 in0.0 mm 0.00 in0.0 mm
01:25 AM 82.2°F27.9°C 71.0°F21.7°C 69% 4.7 mph S7.6 kmh S 9.8 mph15.8 kmh 29.44 in997.0 mb 0.00 in0.0 mm 0.00 in0.0 mm 0.00 in0.0 mm
01:30 AM 82.0°F27.8°C 70.9°F21.6°C 69% 2.6 mph SSE4.2 kmh SSE 7.4 mph11.9 kmh 29.44 in997.0 mb 0.00 in0.0 mm 0.00 in0.0 mm 0.00 in0.0 mm
01:35 AM 81.9°F27.7°C 71.1°F21.7°C 70% 5.1 mph SSE8.2 kmh SSE 7.4 mph11.9 kmh 29.44 in997.0 mb 0.00 in0.0 mm 0.00 in0.0 mm 0.00 in0.0 mm
01:40 AM 81.7°F27.6°C 70.9°F21.6°C 70% 2.9 mph S4.7 kmh S 4.9 mph7.9 kmh 29.44 in997.0 mb 0.00 in0.0 mm 0.00 in0.0 mm 0.00 in0.0 mm
01:45 AM 81.6°F27.6°C 70.9°F21.6°C 70% 4.2 mph S6.8 kmh S 9.8 mph15.8 kmh 29.44 in997.0 mb 0.00 in0.0 mm 0.00 in0.0 mm 0.00 in0.0 mm
01:50 AM 81.4°F27.4°C 71.1°F21.7°C 71% 2.5 mph S4.0 kmh S 7.4 mph11.9 kmh 29.44 in997.0 mb 0.00 in0.0 mm 0.00 in0.0 mm 0.00 in0.0 mm
01:55 AM 81.3°F27.4°C 70.9°F21.6°C 71% 2.9 mph S4.7 kmh S 7.4 mph11.9 kmh 29.44 in997.0 mb 0.00 in0.0 mm 0.00 in0.0 mm 0.00 in0.0 mm
02:00 AM 81.1°F27.3°C 70.8°F21.6°C 71% 2.6 mph S4.2 kmh S 4.9 mph7.9 kmh 29.44 in997.0 mb 0.00 in0.0 mm 0.00 in0.0 mm 0.00 in0.0 mm
02:05 AM 81.1°F27.3°C 70.8°F21.6°C 71% 2.9 mph S4.7 kmh S 7.4 mph11.9 kmh 29.44 in997.0 mb 0.00 in0.0 mm 0.00 in0.0 mm 0.00 in0.0 mm
02:10 AM 81.0°F27.2°C 70.7°F21.5°C 71% 4.4 mph SSE7.1 kmh SSE 7.4 mph11.9 kmh 29.45 in997.3 mb 0.00 in0.0 mm 0.00 in0.0 mm 0.00 in0.0 mm
02:15 AM 81.0°F27.2°C 70.8°F21.6°C 71% 4.5 mph SE7.2 kmh SE 9.8 mph15.8 kmh 29.44 in997.0 mb 0.00 in0.0 mm 0.00 in0.0 mm 0.00 in0.0 mm
02:20 AM 80.9°F27.2°C 71.0°F21.7°C 72% 4.0 mph SSE6.4 kmh SSE 9.8 mph15.8 kmh 29.45 in997.3 mb 0.00 in0.0 mm 0.00 in0.0 mm 0.00 in0.0 mm
02:25 AM 80.8°F27.1°C 70.9°F21.6°C 72% 5.3 mph SSE8.5 kmh SSE 9.8 mph15.8 kmh 29.45 in997.3 mb 0.00 in0.0 mm 0.00 in0.0 mm 0.00 in0.0 mm
02:30 AM 80.8°F27.1°C 70.9°F21.6°C 72% 3.1 mph SSW5.0 kmh SSW 7.4 mph11.9 kmh 29.45 in997.3 mb 0.00 in0.0 mm 0.00 in0.0 mm 0.00 in0.0 mm
02:35 AM 80.8°F27.1°C 71.2°F21.8°C 73% 2.5 mph S4.0 kmh S 7.4 mph11.9 kmh 29.45 in997.3 mb 0.00 in0.0 mm 0.00 in0.0 mm 0.00 in0.0 mm
02:40 AM 80.6°F27.0°C 71.5°F21.9°C 74% 2.9 mph S4.7 kmh S 4.9 mph7.9 kmh 29.45 in997.3 mb 0.00 in0.0 mm 0.00 in0.0 mm 0.00 in0.0 mm
02:45 AM 80.6°F27.0°C 71.5°F21.9°C 74% 3.6 mph S5.8 kmh S 7.4 mph11.9 kmh 29.45 in997.3 mb 0.00 in0.0 mm 0.00 in0.0 mm 0.00 in0.0 mm
02:50 AM 80.5°F26.9°C 71.4°F21.9°C 74% 1.9 mph S3.1 kmh S 7.4 mph11.9 kmh 29.45 in997.3 mb 0.00 in0.0 mm 0.00 in0.0 mm 0.00 in0.0 mm
02:55 AM 80.3°F26.8°C 71.2°F21.8°C 74% 1.2 mph SW1.9 kmh SW 4.9 mph7.9 kmh 29.45 in997.3 mb 0.00 in0.0 mm 0.00 in0.0 mm 0.00 in0.0 mm
03:00 AM 80.2°F26.8°C 71.5°F21.9°C 75% 1.1 mph S1.8 kmh S 4.9 mph7.9 kmh 29.45 in997.3 mb 0.00 in0.0 mm 0.00 in0.0 mm 0.00 in0.0 mm
03:05 AM 80.0°F26.7°C 71.4°F21.9°C 75% 2.7 mph SSW4.3 kmh SSW 4.9 mph7.9 kmh 29.45 in997.3 mb 0.00 in0.0 mm 0.00 in0.0 mm 0.00 in0.0 mm
03:10 AM 79.9°F26.6°C 71.2°F21.8°C 75% 1.6 mph SSW2.6 kmh SSW 4.9 mph7.9 kmh 29.45 in997.3 mb 0.00 in0.0 mm 0.00 in0.0 mm 0.00 in0.0 mm
03:15 AM 79.7°F26.5°C 71.1°F21.7°C 75% 1.9 mph S3.1 kmh S 9.8 mph15.8 kmh 29.45 in997.3 mb 0.00 in0.0 mm 0.00 in0.0 mm 0.00 in0.0 mm
03:20 AM 79.5°F26.4°C 70.9°F21.6°C 75% 2.0 mph S3.2 kmh S 4.9 mph7.9 kmh 29.45 in997.3 mb 0.00 in0.0 mm 0.00 in0.0 mm 0.00 in0.0 mm
03:25 AM 79.5°F26.4°C 70.8°F21.6°C 75% 3.2 mph S5.1 kmh S 4.9 mph7.9 kmh 29.45 in997.3 mb 0.00 in0.0 mm 0.00 in0.0 mm 0.00 in0.0 mm
03:30 AM 79.3°F26.3°C 70.7°F21.5°C 75% 1.2 mph S1.9 kmh S 7.4 mph11.9 kmh 29.45 in997.3 mb 0.00 in0.0 mm 0.00 in0.0 mm 0.00 in0.0 mm
03:35 AM 79.3°F26.3°C 71.1°F21.7°C 76% 2.4 mph S3.9 kmh S 7.4 mph11.9 kmh 29.45 in997.3 mb 0.00 in0.0 mm 0.00 in0.0 mm 0.00 in0.0 mm
03:40 AM 79.2°F26.2°C 71.0°F21.7°C 76% 2.3 mph S3.7 kmh S 4.9 mph7.9 kmh 29.45 in997.3 mb 0.00 in0.0 mm 0.00 in0.0 mm 0.00 in0.0 mm
03:45 AM 79.2°F26.2°C 71.0°F21.7°C 76% 3.5 mph S5.6 kmh S 7.4 mph11.9 kmh 29.45 in997.3 mb 0.00 in0.0 mm 0.00 in0.0 mm 0.00 in0.0 mm
03:50 AM 79.2°F26.2°C 71.0°F21.7°C 76% 4.2 mph S6.8 kmh S 7.4 mph11.9 kmh 29.45 in997.3 mb 0.00 in0.0 mm 0.00 in0.0 mm 0.00 in0.0 mm
03:55 AM 79.2°F26.2°C 71.0°F21.7°C 76% 2.2 mph SSW3.5 kmh SSW 4.9 mph7.9 kmh 29.45 in997.3 mb 0.00 in0.0 mm 0.00 in0.0 mm 0.00 in0.0 mm
04:00 AM 79.0°F26.1°C 71.0°F21.7°C 76% 4.8 mph S7.7 kmh S 7.4 mph11.9 kmh 29.45 in997.3 mb 0.00 in0.0 mm 0.00 in0.0 mm 0.00 in0.0 mm
04:05 AM 79.0°F26.1°C 71.2°F21.8°C 77% 2.5 mph S4.0 kmh S 7.4 mph11.9 kmh 29.45 in997.3 mb 0.00 in0.0 mm 0.00 in0.0 mm 0.00 in0.0 mm
04:10 AM 79.0°F26.1°C 71.4°F21.9°C 78% 1.2 mph S1.9 kmh S 4.9 mph7.9 kmh 29.45 in997.3 mb 0.00 in0.0 mm 0.00 in0.0 mm 0.00 in0.0 mm
04:15 AM 78.9°F26.1°C 71.8°F22.1°C 79% 2.5 mph S4.0 kmh S 7.4 mph11.9 kmh 29.45 in997.3 mb 0.00 in0.0 mm 0.00 in0.0 mm 0.00 in0.0 mm
04:20 AM 78.8°F26.0°C 72.0°F22.2°C 80% 1.8 mph SSW2.9 kmh SSW 4.9 mph7.9 kmh 29.45 in997.3 mb 0.00 in0.0 mm 0.00 in0.0 mm 0.00 in0.0 mm
04:25 AM 78.7°F25.9°C 72.0°F22.2°C 80% 1.7 mph S2.7 kmh S 2.5 mph4.0 kmh 29.45 in997.3 mb 0.00 in0.0 mm 0.00 in0.0 mm 0.00 in0.0 mm
04:30 AM 78.6°F25.9°C 71.9°F22.2°C 80% 1.6 mph S2.6 kmh S 4.9 mph7.9 kmh 29.45 in997.3 mb 0.00 in0.0 mm 0.00 in0.0 mm 0.00 in0.0 mm
04:35 AM 78.6°F25.9°C 72.3°F22.4°C 81% 1.2 mph S1.9 kmh S 4.9 mph7.9 kmh 29.45 in997.3 mb 0.00 in0.0 mm 0.00 in0.0 mm 0.00 in0.0 mm
04:40 AM 78.6°F25.9°C 72.3°F22.4°C 81% 1.2 mph S1.9 kmh S 4.9 mph7.9 kmh 29.45 in997.3 mb 0.00 in0.0 mm 0.00 in0.0 mm 0.00 in0.0 mm
04:45 AM 78.6°F25.9°C 72.3°F22.4°C 81% 2.1 mph S3.4 kmh S 4.9 mph7.9 kmh 29.45 in997.3 mb 0.00 in0.0 mm 0.00 in0.0 mm 0.00 in0.0 mm
04:50 AM 78.6°F25.9°C 72.3°F22.4°C 81% 2.4 mph S3.9 kmh S 7.4 mph11.9 kmh 29.45 in997.3 mb 0.00 in0.0 mm 0.00 in0.0 mm 0.00 in0.0 mm
04:55 AM 78.6°F25.9°C 72.4°F22.4°C 82% 1.8 mph S2.9 kmh S 4.9 mph7.9 kmh 29.45 in997.3 mb 0.00 in0.0 mm 0.00 in0.0 mm 0.00 in0.0 mm
05:00 AM 78.6°F25.9°C 72.6°F22.6°C 82% 2.7 mph SSE4.3 kmh SSE 7.4 mph11.9 kmh 29.45 in997.3 mb 0.00 in0.0 mm 0.00 in0.0 mm 0.00 in0.0 mm
05:05 AM 78.6°F25.9°C 72.6°F22.6°C 82% 3.1 mph S5.0 kmh S 4.9 mph7.9 kmh 29.45 in997.3 mb 0.00 in0.0 mm 0.00 in0.0 mm 0.00 in0.0 mm
05:10 AM 78.6°F25.9°C 72.6°F22.6°C 82% 2.5 mph S4.0 kmh S 4.9 mph7.9 kmh 29.45 in997.3 mb 0.00 in0.0 mm 0.00 in0.0 mm 0.00 in0.0 mm
05:15 AM 78.5°F25.8°C 72.5°F22.5°C 82% 3.6 mph S5.8 kmh S 7.4 mph11.9 kmh 29.45 in997.3 mb 0.00 in0.0 mm 0.00 in0.0 mm 0.00 in0.0 mm
05:20 AM 78.4°F25.8°C 72.4°F22.4°C 82% 3.1 mph S5.0 kmh S 7.4 mph11.9 kmh 29.45 in997.3 mb 0.00 in0.0 mm 0.00 in0.0 mm 0.00 in0.0 mm
05:25 AM 78.4°F25.8°C 72.5°F22.5°C 82% 1.4 mph S2.3 kmh S 4.9 mph7.9 kmh 29.45 in997.3 mb 0.00 in0.0 mm 0.00 in0.0 mm 0.00 in0.0 mm
05:30 AM 78.4°F25.8°C 72.8°F22.7°C 83% 1.6 mph S2.6 kmh S 4.9 mph7.9 kmh 29.45 in997.3 mb 0.00 in0.0 mm 0.00 in0.0 mm 0.00 in0.0 mm
05:35 AM 78.2°F25.7°C 72.6°F22.6°C 83% 1.8 mph S2.9 kmh S 4.9 mph7.9 kmh 29.46 in997.6 mb 0.00 in0.0 mm 0.00 in0.0 mm 0.00 in0.0 mm
05:40 AM 78.0°F25.6°C 72.4°F22.4°C 83% 2.1 mph SSE3.4 kmh SSE 4.9 mph7.9 kmh 29.45 in997.3 mb 0.00 in0.0 mm 0.00 in0.0 mm 0.00 in0.0 mm
05:45 AM 77.7°F25.4°C 72.1°F22.3°C 83% 3.6 mph SSE5.8 kmh SSE 7.4 mph11.9 kmh 29.45 in997.3 mb 0.00 in0.0 mm 0.00 in0.0 mm 0.00 in0.0 mm
05:50 AM 77.5°F25.3°C 71.9°F22.2°C 83% 4.1 mph SSE6.6 kmh SSE 7.4 mph11.9 kmh 29.45 in997.3 mb 0.00 in0.0 mm 0.00 in0.0 mm 0.00 in0.0 mm
05:55 AM 77.3°F25.2°C 71.7°F22.1°C 83% 3.7 mph S6.0 kmh S 7.4 mph11.9 kmh 29.46 in997.6 mb 0.00 in0.0 mm 0.00 in0.0 mm 0.00 in0.0 mm
06:00 AM 77.2°F25.1°C 72.0°F22.2°C 84% 1.2 mph S1.9 kmh S 2.5 mph4.0 kmh 29.46 in997.6 mb 0.00 in0.0 mm 0.00 in0.0 mm 0.00 in0.0 mm
06:05 AM 77.2°F25.1°C 72.0°F22.2°C 84% 1.5 mph SSE2.4 kmh SSE 4.9 mph7.9 kmh 29.46 in997.6 mb 0.00 in0.0 mm 0.00 in0.0 mm 0.00 in0.0 mm
06:10 AM 77.2°F25.1°C 72.0°F22.2°C 84% 2.5 mph SE4.0 kmh SE 4.9 mph7.9 kmh 29.46 in997.6 mb 0.00 in0.0 mm 0.00 in0.0 mm 0.00 in0.0 mm
06:15 AM 77.2°F25.1°C 72.0°F22.2°C 84% 1.8 mph SE2.9 kmh SE 4.9 mph7.9 kmh 29.47 in998.0 mb 0.00 in0.0 mm 0.00 in0.0 mm 0.00 in0.0 mm
06:20 AM 77.2°F25.1°C 72.0°F22.2°C 84% 1.9 mph SE3.1 kmh SE 4.9 mph7.9 kmh 29.47 in998.0 mb 0.00 in0.0 mm 0.00 in0.0 mm 0.00 in0.0 mm
06:25 AM 77.2°F25.1°C 71.7°F22.1°C 83% 2.3 mph S3.7 kmh S 7.4 mph11.9 kmh 29.46 in997.6 mb 0.00 in0.0 mm 0.00 in0.0 mm 0.00 in0.0 mm
06:30 AM 77.2°F25.1°C 71.5°F21.9°C 83% 3.1 mph SE5.0 kmh SE 4.9 mph7.9 kmh 29.47 in998.0 mb 0.00 in0.0 mm 0.00 in0.0 mm 0.00 in0.0 mm
06:35 AM 77.2°F25.1°C 71.3°F21.8°C 82% 3.6 mph SSE5.8 kmh SSE 4.9 mph7.9 kmh 29.46 in997.6 mb 0.00 in0.0 mm 0.00 in0.0 mm 0.00 in0.0 mm
06:40 AM 77.2°F25.1°C 71.1°F21.7°C 82% 2.6 mph SSE4.2 kmh SSE 4.9 mph7.9 kmh 29.46 in997.6 mb 0.00 in0.0 mm 0.00 in0.0 mm 0.00 in0.0 mm
06:45 AM 77.2°F25.1°C 70.8°F21.6°C 81% 3.2 mph SSE5.1 kmh SSE 4.9 mph7.9 kmh 29.46 in997.6 mb 0.00 in0.0 mm 0.00 in0.0 mm 0.00 in0.0 mm
06:50 AM 77.2°F25.1°C 70.5°F21.4°C 80% 3.5 mph SE5.6 kmh SE 7.4 mph11.9 kmh 29.46 in997.6 mb 0.00 in0.0 mm 0.00 in0.0 mm 0.00 in0.0 mm
06:55 AM 77.3°F25.2°C 70.4°F21.3°C 79% 2.4 mph SSE3.9 kmh SSE 7.4 mph11.9 kmh 29.46 in997.6 mb 0.00 in0.0 mm 0.00 in0.0 mm 0.00 in0.0 mm
07:00 AM 77.6°F25.3°C 69.9°F21.1°C 77% 1.2 mph SSE1.9 kmh SSE 2.5 mph4.0 kmh 29.46 in997.6 mb 0.00 in0.0 mm 0.00 in0.0 mm 0.00 in0.0 mm
07:05 AM 78.0°F25.6°C 69.8°F21.0°C 76% 2.7 mph SSE4.3 kmh SSE 7.4 mph11.9 kmh 29.47 in998.0 mb 0.00 in0.0 mm 0.00 in0.0 mm 0.00 in0.0 mm
07:10 AM 78.4°F25.8°C 70.2°F21.2°C 76% 3.3 mph SSE5.3 kmh SSE 7.4 mph11.9 kmh 29.47 in998.0 mb 0.00 in0.0 mm 0.00 in0.0 mm 0.00 in0.0 mm
07:15 AM 78.8°F26.0°C 70.4°F21.3°C 76% 4.4 mph SSE7.1 kmh SSE 7.4 mph11.9 kmh 29.47 in998.0 mb 0.00 in0.0 mm 0.00 in0.0 mm 0.00 in0.0 mm
07:20 AM 79.2°F26.2°C 71.0°F21.7°C 76% 3.2 mph SSE5.1 kmh SSE 4.9 mph7.9 kmh 29.47 in998.0 mb 0.00 in0.0 mm 0.00 in0.0 mm 0.00 in0.0 mm
07:25 AM 79.5°F26.4°C 70.5°F21.4°C 74% 3.0 mph S4.8 kmh S 7.4 mph11.9 kmh 29.47 in998.0 mb 0.00 in0.0 mm 0.00 in0.0 mm 0.00 in0.0 mm
07:30 AM 80.0°F26.7°C 70.7°F21.5°C 73% 4.2 mph S6.8 kmh S 9.8 mph15.8 kmh 29.47 in998.0 mb 0.00 in0.0 mm 0.00 in0.0 mm 0.00 in0.0 mm
07:35 AM 80.3°F26.8°C 70.9°F21.6°C 73% 4.0 mph SSE6.4 kmh SSE 9.8 mph15.8 kmh 29.48 in998.3 mb 0.00 in0.0 mm 0.00 in0.0 mm 0.00 in0.0 mm
07:40 AM 80.8°F27.1°C 71.4°F21.9°C 73% 3.3 mph S5.3 kmh S 9.8 mph15.8 kmh 29.47 in998.0 mb 0.00 in0.0 mm 0.00 in0.0 mm 0.00 in0.0 mm
07:45 AM 81.2°F27.3°C 71.3°F21.8°C 72% 3.6 mph S5.8 kmh S 9.8 mph15.8 kmh 29.48 in998.3 mb 0.00 in0.0 mm 0.00 in0.0 mm 0.00 in0.0 mm
07:50 AM 81.6°F27.6°C 71.9°F22.2°C 72% 2.4 mph SSW3.9 kmh SSW 7.4 mph11.9 kmh 29.48 in998.3 mb 0.00 in0.0 mm 0.00 in0.0 mm 0.00 in0.0 mm
07:55 AM 81.9°F27.7°C 72.0°F22.2°C 72% 2.9 mph S4.7 kmh S 9.8 mph15.8 kmh 29.47 in998.0 mb 0.00 in0.0 mm 0.00 in0.0 mm 0.00 in0.0 mm
08:00 AM 82.1°F27.8°C 71.9°F22.2°C 72% 2.2 mph S3.5 kmh S 7.4 mph11.9 kmh 29.48 in998.3 mb 0.00 in0.0 mm 0.00 in0.0 mm 0.00 in0.0 mm
08:05 AM 82.4°F28.0°C 71.8°F22.1°C 70% 3.0 mph S4.8 kmh S 7.4 mph11.9 kmh 29.48 in998.3 mb 0.00 in0.0 mm 0.00 in0.0 mm 0.00 in0.0 mm
08:10 AM 82.7°F28.2°C 71.7°F22.1°C 70% 3.2 mph S5.1 kmh S 9.8 mph15.8 kmh 29.48 in998.3 mb 0.00 in0.0 mm 0.00 in0.0 mm 0.00 in0.0 mm
08:15 AM 82.9°F28.3°C 71.0°F21.7°C 67% 2.7 mph S4.3 kmh S 7.4 mph11.9 kmh 29.48 in998.3 mb 0.00 in0.0 mm 0.00 in0.0 mm 0.00 in0.0 mm
08:20 AM 83.3°F28.5°C 70.9°F21.6°C 66% 5.4 mph SSE8.7 kmh SSE 9.8 mph15.8 kmh 29.48 in998.3 mb 0.00 in0.0 mm 0.00 in0.0 mm 0.00 in0.0 mm
08:25 AM 83.6°F28.7°C 71.3°F21.8°C 67% 1.5 mph SW2.4 kmh SW 2.5 mph4.0 kmh 29.48 in998.3 mb 0.00 in0.0 mm 0.00 in0.0 mm 0.00 in0.0 mm
08:30 AM 83.9°F28.8°C 70.3°F21.3°C 64% 0.4 mph SSW0.6 kmh SSW 2.5 mph4.0 kmh 29.48 in998.3 mb 0.00 in0.0 mm 0.00 in0.0 mm 0.00 in0.0 mm
08:35 AM 84.4°F29.1°C 69.6°F20.9°C 61% 0.8 mph WSW1.3 kmh WSW 4.9 mph7.9 kmh 29.48 in998.3 mb 0.00 in0.0 mm 0.00 in0.0 mm 0.00 in0.0 mm
08:40 AM 84.8°F29.3°C 69.8°F21.0°C 61% 0.4 mph SW0.6 kmh SW 2.5 mph4.0 kmh 29.48 in998.3 mb 0.00 in0.0 mm 0.00 in0.0 mm 0.00 in0.0 mm
08:45 AM 85.0°F29.4°C 70.4°F21.3°C 62% 0.2 mph WSW0.3 kmh WSW 2.5 mph4.0 kmh 29.48 in998.3 mb 0.00 in0.0 mm 0.00 in0.0 mm 0.00 in0.0 mm
08:50 AM 85.4°F29.7°C 70.7°F21.5°C 62% 0.1 mph WSW0.2 kmh WSW 2.5 mph4.0 kmh 29.48 in998.3 mb 0.00 in0.0 mm 0.00 in0.0 mm 0.00 in0.0 mm
08:55 AM 85.6°F29.8°C 70.4°F21.3°C 60% 0.3 mph WSW0.5 kmh WSW 2.5 mph4.0 kmh 29.48 in998.3 mb 0.00 in0.0 mm 0.00 in0.0 mm 0.00 in0.0 mm
09:00 AM 85.8°F29.9°C 70.0°F21.1°C 60% 0.2 mph WSW0.3 kmh WSW 2.5 mph4.0 kmh 29.49 in998.6 mb 0.00 in0.0 mm 0.00 in0.0 mm 0.00 in0.0 mm
09:05 AM 85.8°F29.9°C 69.4°F20.8°C 58% 0.7 mph SW1.1 kmh SW 2.5 mph4.0 kmh 29.49 in998.6 mb 0.00 in0.0 mm 0.00 in0.0 mm 0.00 in0.0 mm
09:10 AM 86.1°F30.1°C 69.0°F20.6°C 57% 2.2 mph S3.5 kmh S 4.9 mph7.9 kmh 29.49 in998.6 mb 0.00 in0.0 mm 0.00 in0.0 mm 0.00 in0.0 mm
09:15 AM 86.4°F30.2°C 69.8°F21.0°C 58% 1.3 mph WSW2.1 kmh WSW 4.9 mph7.9 kmh 29.49 in998.6 mb 0.00 in0.0 mm 0.00 in0.0 mm 0.00 in0.0 mm
09:20 AM 86.6°F30.3°C 70.2°F21.2°C 58% 0.4 mph SW0.6 kmh SW 2.5 mph4.0 kmh 29.49 in998.6 mb 0.00 in0.0 mm 0.00 in0.0 mm 0.00 in0.0 mm
09:25 AM 87.0°F30.6°C 69.1°F20.6°C 56% 1.9 mph S3.1 kmh S 7.4 mph11.9 kmh 29.49 in998.6 mb 0.00 in0.0 mm 0.00 in0.0 mm 0.00 in0.0 mm
09:30 AM 87.2°F30.7°C 68.8°F20.4°C 54% 2.9 mph SSE4.7 kmh SSE 4.9 mph7.9 kmh 29.49 in998.6 mb 0.00 in0.0 mm 0.00 in0.0 mm 0.00 in0.0 mm
09:35 AM 87.4°F30.8°C 68.6°F20.3°C 54% 4.5 mph SSE7.2 kmh SSE 7.4 mph11.9 kmh 29.49 in998.6 mb 0.00 in0.0 mm 0.00 in0.0 mm 0.00 in0.0 mm
09:40 AM 87.4°F30.8°C 68.8°F20.4°C 54% 4.5 mph S7.2 kmh S 9.8 mph15.8 kmh 29.49 in998.6 mb 0.00 in0.0 mm 0.00 in0.0 mm 0.00 in0.0 mm
09:45 AM 87.4°F30.8°C 68.3°F20.2°C 53% 4.2 mph SSE6.8 kmh SSE 9.8 mph15.8 kmh 29.48 in998.3 mb 0.00 in0.0 mm 0.00 in0.0 mm 0.00 in0.0 mm
09:50 AM 87.4°F30.8°C 68.3°F20.2°C 53% 5.3 mph SSE8.5 kmh SSE 9.8 mph15.8 kmh 29.49 in998.6 mb 0.00 in0.0 mm 0.00 in0.0 mm 0.00 in0.0 mm
09:55 AM 87.4°F30.8°C 67.9°F19.9°C 53% 3.8 mph SSE6.1 kmh SSE 7.4 mph11.9 kmh 29.49 in998.6 mb 0.00 in0.0 mm 0.00 in0.0 mm 0.00 in0.0 mm
10:00 AM 87.4°F30.8°C 67.9°F19.9°C 52% 5.3 mph SSE8.5 kmh SSE 9.8 mph15.8 kmh 29.49 in998.6 mb 0.00 in0.0 mm 0.00 in0.0 mm 0.00 in0.0 mm
10:05 AM 87.4°F30.8°C 67.0°F19.4°C 51% 3.0 mph SE4.8 kmh SE 7.4 mph11.9 kmh 29.49 in998.6 mb 0.00 in0.0 mm 0.00 in0.0 mm 0.00 in0.0 mm
10:10 AM 87.4°F30.8°C 67.2°F19.6°C 51% 2.9 mph SE4.7 kmh SE 9.8 mph15.8 kmh 29.49 in998.6 mb 0.00 in0.0 mm 0.00 in0.0 mm 0.00 in0.0 mm
10:15 AM 87.7°F30.9°C 67.0°F19.4°C 50% 0.8 mph S1.3 kmh S 2.5 mph4.0 kmh 29.49 in998.6 mb 0.00 in0.0 mm 0.00 in0.0 mm 0.00 in0.0 mm
10:20 AM 88.2°F31.2°C 66.1°F18.9°C 48% 2.1 mph SE3.4 kmh SE 7.4 mph11.9 kmh 29.49 in998.6 mb 0.00 in0.0 mm 0.00 in0.0 mm 0.00 in0.0 mm
10:25 AM 88.6°F31.4°C 66.3°F19.1°C 48% 3.7 mph SE6.0 kmh SE 9.8 mph15.8 kmh 29.49 in998.6 mb 0.00 in0.0 mm 0.00 in0.0 mm 0.00 in0.0 mm
10:30 AM 88.9°F31.6°C 67.1°F19.5°C 49% 5.4 mph S8.7 kmh S 9.8 mph15.8 kmh 29.49 in998.6 mb 0.00 in0.0 mm 0.00 in0.0 mm 0.00 in0.0 mm
10:35 AM 89.3°F31.8°C 67.2°F19.6°C 48% 1.6 mph SW2.6 kmh SW 4.9 mph7.9 kmh 29.49 in998.6 mb 0.00 in0.0 mm 0.00 in0.0 mm 0.00 in0.0 mm
10:40 AM 89.6°F32.0°C 67.3°F19.6°C 48% 3.2 mph SSE5.1 kmh SSE 7.4 mph11.9 kmh 29.49 in998.6 mb 0.00 in0.0 mm 0.00 in0.0 mm 0.00 in0.0 mm
10:45 AM 89.8°F32.1°C 67.3°F19.6°C 48% 4.4 mph S7.1 kmh S 12.3 mph19.8 kmh 29.49 in998.6 mb 0.00 in0.0 mm 0.00 in0.0 mm 0.00 in0.0 mm
10:50 AM 89.8°F32.1°C 67.7°F19.8°C 48% 3.8 mph S6.1 kmh S 7.4 mph11.9 kmh 29.48 in998.3 mb 0.00 in0.0 mm 0.00 in0.0 mm 0.00 in0.0 mm
10:55 AM 89.9°F32.2°C 67.2°F19.6°C 48% 4.9 mph S7.9 kmh S 9.8 mph15.8 kmh 29.49 in998.6 mb 0.00 in0.0 mm 0.00 in0.0 mm 0.00 in0.0 mm
11:00 AM 90.0°F32.2°C 67.2°F19.6°C 47% 6.4 mph SE10.3 kmh SE 9.8 mph15.8 kmh 29.48 in998.3 mb 0.00 in0.0 mm 0.00 in0.0 mm 0.00 in0.0 mm
11:05 AM 90.0°F32.2°C 67.6°F19.8°C 48% 5.1 mph SE8.2 kmh SE 9.8 mph15.8 kmh 29.48 in998.3 mb 0.00 in0.0 mm 0.00 in0.0 mm 0.00 in0.0 mm
11:10 AM 90.0°F32.2°C 67.3°F19.6°C 47% 2.6 mph SSW4.2 kmh SSW 7.4 mph11.9 kmh 29.48 in998.3 mb 0.00 in0.0 mm 0.00 in0.0 mm 0.00 in0.0 mm
11:15 AM 90.1°F32.3°C 66.7°F19.3°C 46% 1.4 mph WSW2.3 kmh WSW 4.9 mph7.9 kmh 29.48 in998.3 mb 0.00 in0.0 mm 0.00 in0.0 mm 0.00 in0.0 mm
11:20 AM 90.1°F32.3°C 66.4°F19.1°C 46% 3.3 mph SE5.3 kmh SE 9.8 mph15.8 kmh 29.49 in998.6 mb 0.00 in0.0 mm 0.00 in0.0 mm 0.00 in0.0 mm
11:25 AM 90.1°F32.3°C 65.7°F18.7°C 45% 7.1 mph S11.4 kmh S 9.8 mph15.8 kmh 29.49 in998.6 mb 0.00 in0.0 mm 0.00 in0.0 mm 0.00 in0.0 mm
11:30 AM 90.1°F32.3°C 66.7°F19.3°C 46% 2.9 mph S4.7 kmh S 7.4 mph11.9 kmh 29.49 in998.6 mb 0.00 in0.0 mm 0.00 in0.0 mm 0.00 in0.0 mm
11:35 AM 90.0°F32.2°C 67.3°F19.6°C 48% 3.3 mph SSE5.3 kmh SSE 9.8 mph15.8 kmh 29.48 in998.3 mb 0.00 in0.0 mm 0.00 in0.0 mm 0.00 in0.0 mm
11:40 AM 89.9°F32.2°C 68.1°F20.1°C 49% 4.0 mph SSE6.4 kmh SSE 9.8 mph15.8 kmh 29.48 in998.3 mb 0.00 in0.0 mm 0.00 in0.0 mm 0.00 in0.0 mm
11:45 AM 89.7°F32.1°C 68.0°F20.0°C 49% 6.2 mph S10.0 kmh S 9.8 mph15.8 kmh 29.48 in998.3 mb 0.00 in0.0 mm 0.00 in0.0 mm 0.00 in0.0 mm
11:50 AM 89.4°F31.9°C 68.1°F20.1°C 50% 2.8 mph SE4.5 kmh SE 7.4 mph11.9 kmh 29.48 in998.3 mb 0.00 in0.0 mm 0.00 in0.0 mm 0.00 in0.0 mm
11:55 AM 89.2°F31.8°C 67.9°F19.9°C 50% 6.2 mph SE10.0 kmh SE 15.0 mph24.1 kmh 29.47 in998.0 mb 0.00 in0.0 mm 0.00 in0.0 mm 0.00 in0.0 mm
12:00 PM 89.1°F31.7°C 67.4°F19.7°C 49% 6.5 mph SSE10.5 kmh SSE 9.8 mph15.8 kmh 29.48 in998.3 mb 0.00 in0.0 mm 0.00 in0.0 mm 0.00 in0.0 mm
12:05 PM 88.9°F31.6°C 67.2°F19.6°C 49% 4.6 mph SSE7.4 kmh SSE 9.8 mph15.8 kmh 29.48 in998.3 mb 0.00 in0.0 mm 0.00 in0.0 mm 0.00 in0.0 mm
12:10 PM 88.7°F31.5°C 67.1°F19.5°C 49% 3.7 mph SE6.0 kmh SE 9.8 mph15.8 kmh 29.47 in998.0 mb 0.00 in0.0 mm 0.00 in0.0 mm 0.00 in0.0 mm
12:15 PM 88.6°F31.4°C 67.5°F19.7°C 50% 3.7 mph SSE6.0 kmh SSE 7.4 mph11.9 kmh 29.47 in998.0 mb 0.00 in0.0 mm 0.00 in0.0 mm 0.00 in0.0 mm
12:20 PM 88.4°F31.3°C 67.2°F19.6°C 50% 5.7 mph SSE9.2 kmh SSE 12.3 mph19.8 kmh 29.47 in998.0 mb 0.00 in0.0 mm 0.00 in0.0 mm 0.00 in0.0 mm
12:25 PM 88.3°F31.3°C 66.8°F19.3°C 49% 4.0 mph S6.4 kmh S 7.4 mph11.9 kmh 29.47 in998.0 mb 0.00 in0.0 mm 0.00 in0.0 mm 0.00 in0.0 mm
12:30 PM 88.3°F31.3°C 67.0°F19.4°C 50% 6.0 mph S9.7 kmh S 9.8 mph15.8 kmh 29.47 in998.0 mb 0.00 in0.0 mm 0.00 in0.0 mm 0.00 in0.0 mm
12:35 PM 88.3°F31.3°C 67.3°F19.6°C 50% 3.2 mph SSE5.1 kmh SSE 9.8 mph15.8 kmh 29.47 in998.0 mb 0.00 in0.0 mm 0.00 in0.0 mm 0.00 in0.0 mm
12:40 PM 88.3°F31.3°C 67.0°F19.4°C 50% 3.3 mph SE5.3 kmh SE 4.9 mph7.9 kmh 29.47 in998.0 mb 0.00 in0.0 mm 0.00 in0.0 mm 0.00 in0.0 mm
12:45 PM 88.4°F31.3°C 66.7°F19.3°C 49% 2.6 mph SE4.2 kmh SE 4.9 mph7.9 kmh 29.47 in998.0 mb 0.00 in0.0 mm 0.00 in0.0 mm 0.00 in0.0 mm
12:50 PM 88.5°F31.4°C 66.9°F19.4°C 49% 3.8 mph SSE6.1 kmh SSE 7.4 mph11.9 kmh 29.47 in998.0 mb 0.00 in0.0 mm 0.00 in0.0 mm 0.00 in0.0 mm
12:55 PM 88.7°F31.5°C 67.0°F19.4°C 49% 6.8 mph SE10.9 kmh SE 15.0 mph24.1 kmh 29.47 in998.0 mb 0.00 in0.0 mm 0.00 in0.0 mm 0.00 in0.0 mm
01:00 PM 88.8°F31.6°C 67.2°F19.6°C 49% 6.1 mph SSE9.8 kmh SSE 12.3 mph19.8 kmh 29.47 in998.0 mb 0.00 in0.0 mm 0.00 in0.0 mm 0.00 in0.0 mm
01:05 PM 89.0°F31.7°C 67.2°F19.6°C 49% 6.5 mph SE10.5 kmh SE 15.0 mph24.1 kmh 29.47 in998.0 mb 0.00 in0.0 mm 0.00 in0.0 mm 0.00 in0.0 mm
01:10 PM 89.1°F31.7°C 66.8°F19.3°C 48% 3.5 mph ESE5.6 kmh ESE 7.4 mph11.9 kmh 29.46 in997.6 mb 0.00 in0.0 mm 0.00 in0.0 mm 0.00 in0.0 mm
01:15 PM 89.3°F31.8°C 67.0°F19.4°C 48% 6.9 mph SSE11.1 kmh SSE 15.0 mph24.1 kmh 29.47 in998.0 mb 0.00 in0.0 mm 0.00 in0.0 mm 0.00 in0.0 mm
01:20 PM 89.4°F31.9°C 67.6°F19.8°C 49% 4.4 mph S7.1 kmh S 9.8 mph15.8 kmh 29.47 in998.0 mb 0.00 in0.0 mm 0.00 in0.0 mm 0.00 in0.0 mm
01:25 PM 89.5°F31.9°C 67.2°F19.6°C 48% 2.9 mph S4.7 kmh S 7.4 mph11.9 kmh 29.47 in998.0 mb 0.00 in0.0 mm 0.00 in0.0 mm 0.00 in0.0 mm
01:30 PM 89.9°F32.2°C 66.9°F19.4°C 47% 4.3 mph S6.9 kmh S 7.4 mph11.9 kmh 29.47 in998.0 mb 0.00 in0.0 mm 0.00 in0.0 mm 0.00 in0.0 mm
01:35 PM 90.1°F32.3°C 66.1°F18.9°C 45% 3.9 mph S6.3 kmh S 9.8 mph15.8 kmh 29.47 in998.0 mb 0.00 in0.0 mm 0.00 in0.0 mm 0.00 in0.0 mm
01:40 PM 90.4°F32.4°C 66.4°F19.1°C 46% 6.0 mph SE9.7 kmh SE 12.3 mph19.8 kmh 29.47 in998.0 mb 0.00 in0.0 mm 0.00 in0.0 mm 0.00 in0.0 mm
01:45 PM 90.5°F32.5°C 66.3°F19.1°C 45% 3.3 mph SSE5.3 kmh SSE 7.4 mph11.9 kmh 29.46 in997.6 mb 0.00 in0.0 mm 0.00 in0.0 mm 0.00 in0.0 mm
01:50 PM 90.9°F32.7°C 65.5°F18.6°C 43% 5.3 mph SSE8.5 kmh SSE 15.0 mph24.1 kmh 29.46 in997.6 mb 0.00 in0.0 mm 0.00 in0.0 mm 0.00 in0.0 mm
01:55 PM 91.2°F32.9°C 65.0°F18.3°C 42% 5.3 mph SSE8.5 kmh SSE 7.4 mph11.9 kmh 29.46 in997.6 mb 0.00 in0.0 mm 0.00 in0.0 mm 0.00 in0.0 mm
02:00 PM 91.5°F33.1°C 65.1°F18.4°C 42% 2.9 mph S4.7 kmh S 9.8 mph15.8 kmh 29.46 in997.6 mb 0.00 in0.0 mm 0.00 in0.0 mm 0.00 in0.0 mm
02:05 PM 91.8°F33.2°C 64.0°F17.8°C 40% 3.1 mph SE5.0 kmh SE 7.4 mph11.9 kmh 29.46 in997.6 mb 0.00 in0.0 mm 0.00 in0.0 mm 0.00 in0.0 mm
02:10 PM 91.9°F33.3°C 64.9°F18.3°C 41% 6.1 mph SSE9.8 kmh SSE 12.3 mph19.8 kmh 29.45 in997.3 mb 0.00 in0.0 mm 0.00 in0.0 mm 0.00 in0.0 mm
02:15 PM 92.1°F33.4°C 65.2°F18.4°C 41% 2.7 mph SSE4.3 kmh SSE 4.9 mph7.9 kmh 29.45 in997.3 mb 0.00 in0.0 mm 0.00 in0.0 mm 0.00 in0.0 mm
02:20 PM 92.3°F33.5°C 64.1°F17.8°C 40% 4.6 mph SSE7.4 kmh SSE 9.8 mph15.8 kmh 29.45 in997.3 mb 0.00 in0.0 mm 0.00 in0.0 mm 0.00 in0.0 mm
02:25 PM 92.5°F33.6°C 64.2°F17.9°C 39% 3.6 mph SE5.8 kmh SE 12.3 mph19.8 kmh 29.45 in997.3 mb 0.00 in0.0 mm 0.00 in0.0 mm 0.00 in0.0 mm
02:30 PM 92.6°F33.7°C 63.7°F17.6°C 39% 3.5 mph SE5.6 kmh SE 7.4 mph11.9 kmh 29.45 in997.3 mb 0.00 in0.0 mm 0.00 in0.0 mm 0.00 in0.0 mm
02:35 PM 92.5°F33.6°C 62.2°F16.8°C 37% 4.6 mph S7.4 kmh S 9.8 mph15.8 kmh 29.44 in997.0 mb 0.00 in0.0 mm 0.00 in0.0 mm 0.00 in0.0 mm
02:40 PM 92.7°F33.7°C 61.8°F16.6°C 36% 3.9 mph S6.3 kmh S 9.8 mph15.8 kmh 29.45 in997.3 mb 0.00 in0.0 mm 0.00 in0.0 mm 0.00 in0.0 mm
02:45 PM 93.1°F33.9°C 62.0°F16.7°C 36% 6.4 mph S10.3 kmh S 12.3 mph19.8 kmh 29.44 in997.0 mb 0.00 in0.0 mm 0.00 in0.0 mm 0.00 in0.0 mm
02:50 PM 93.2°F34.0°C 61.7°F16.5°C 35% 5.6 mph SSE9.0 kmh SSE 9.8 mph15.8 kmh 29.45 in997.3 mb 0.00 in0.0 mm 0.00 in0.0 mm 0.00 in0.0 mm
02:55 PM 93.2°F34.0°C 62.1°F16.7°C 36% 8.1 mph SE13.0 kmh SE 19.9 mph32.0 kmh 29.45 in997.3 mb 0.00 in0.0 mm 0.00 in0.0 mm 0.00 in0.0 mm
03:00 PM 93.2°F34.0°C 62.6°F17.0°C 36% 6.4 mph S10.3 kmh S 12.3 mph19.8 kmh 29.44 in997.0 mb 0.00 in0.0 mm 0.00 in0.0 mm 0.00 in0.0 mm
03:05 PM 93.3°F34.1°C 63.0°F17.2°C 37% 1.4 mph SW2.3 kmh SW 4.9 mph7.9 kmh 29.44 in997.0 mb 0.00 in0.0 mm 0.00 in0.0 mm 0.00 in0.0 mm
03:10 PM 93.4°F34.1°C 62.4°F16.9°C 36% 6.7 mph SE10.8 kmh SE 12.3 mph19.8 kmh 29.43 in996.6 mb 0.00 in0.0 mm 0.00 in0.0 mm 0.00 in0.0 mm
03:15 PM 93.4°F34.1°C 63.6°F17.6°C 38% 4.3 mph E6.9 kmh E 7.4 mph11.9 kmh 29.44 in997.0 mb 0.00 in0.0 mm 0.00 in0.0 mm 0.00 in0.0 mm
03:20 PM 93.5°F34.2°C 63.0°F17.2°C 37% 4.9 mph S7.9 kmh S 7.4 mph11.9 kmh 29.43 in996.6 mb 0.00 in0.0 mm 0.00 in0.0 mm 0.00 in0.0 mm
03:25 PM 93.7°F34.3°C 61.7°F16.5°C 35% 3.0 mph SSE4.8 kmh SSE 12.3 mph19.8 kmh 29.43 in996.6 mb 0.00 in0.0 mm 0.00 in0.0 mm 0.00 in0.0 mm
03:30 PM 94.0°F34.4°C 61.4°F16.3°C 34% 3.6 mph SE5.8 kmh SE 7.4 mph11.9 kmh 29.44 in997.0 mb 0.00 in0.0 mm 0.00 in0.0 mm 0.00 in0.0 mm
03:35 PM 94.3°F34.6°C 62.2°F16.8°C 35% 4.7 mph SSE7.6 kmh SSE 7.4 mph11.9 kmh 29.43 in996.6 mb 0.00 in0.0 mm 0.00 in0.0 mm 0.00 in0.0 mm
03:40 PM 94.2°F34.6°C 62.9°F17.2°C 36% 5.5 mph SE8.9 kmh SE 9.8 mph15.8 kmh 29.43 in996.6 mb 0.00 in0.0 mm 0.00 in0.0 mm 0.00 in0.0 mm
03:45 PM 94.3°F34.6°C 63.6°F17.6°C 36% 3.3 mph S5.3 kmh S 9.8 mph15.8 kmh 29.43 in996.6 mb 0.00 in0.0 mm 0.00 in0.0 mm 0.00 in0.0 mm
03:50 PM 94.3°F34.6°C 63.3°F17.4°C 36% 2.2 mph S3.5 kmh S 7.4 mph11.9 kmh 29.42 in996.3 mb 0.00 in0.0 mm 0.00 in0.0 mm 0.00 in0.0 mm
03:55 PM 94.0°F34.4°C 64.4°F18.0°C 38% 5.9 mph S9.5 kmh S 9.8 mph15.8 kmh 29.43 in996.6 mb 0.00 in0.0 mm 0.00 in0.0 mm 0.00 in0.0 mm
04:00 PM 93.7°F34.3°C 63.8°F17.7°C 38% 3.6 mph SE5.8 kmh SE 7.4 mph11.9 kmh 29.43 in996.6 mb 0.00 in0.0 mm 0.00 in0.0 mm 0.00 in0.0 mm
04:05 PM 93.7°F34.3°C 62.2°F16.8°C 36% 3.7 mph S6.0 kmh S 15.0 mph24.1 kmh 29.42 in996.3 mb 0.00 in0.0 mm 0.00 in0.0 mm 0.00 in0.0 mm
04:10 PM 93.7°F34.3°C 61.6°F16.4°C 35% 5.1 mph SSE8.2 kmh SSE 9.8 mph15.8 kmh 29.43 in996.6 mb 0.00 in0.0 mm 0.00 in0.0 mm 0.00 in0.0 mm
04:15 PM 93.7°F34.3°C 62.5°F16.9°C 36% 3.2 mph S5.1 kmh S 7.4 mph11.9 kmh 29.42 in996.3 mb 0.00 in0.0 mm 0.00 in0.0 mm 0.00 in0.0 mm
04:20 PM 93.8°F34.3°C 62.9°F17.2°C 36% 4.4 mph S7.1 kmh S 9.8 mph15.8 kmh 29.42 in996.3 mb 0.00 in0.0 mm 0.00 in0.0 mm 0.00 in0.0 mm
04:25 PM 93.9°F34.4°C 63.6°F17.6°C 37% 0.7 mph E1.1 kmh E 2.5 mph4.0 kmh 29.42 in996.3 mb 0.00 in0.0 mm 0.00 in0.0 mm 0.00 in0.0 mm
04:30 PM 93.9°F34.4°C 64.1°F17.8°C 38% 1.7 mph S2.7 kmh S 4.9 mph7.9 kmh 29.42 in996.3 mb 0.00 in0.0 mm 0.00 in0.0 mm 0.00 in0.0 mm
04:35 PM 93.7°F34.3°C 63.9°F17.7°C 38% 2.0 mph S3.2 kmh S 4.9 mph7.9 kmh 29.42 in996.3 mb 0.00 in0.0 mm 0.00 in0.0 mm 0.00 in0.0 mm
04:40 PM 93.6°F34.2°C 63.2°F17.3°C 37% 1.7 mph SE2.7 kmh SE 4.9 mph7.9 kmh 29.41 in995.9 mb 0.00 in0.0 mm 0.00 in0.0 mm 0.00 in0.0 mm
04:45 PM 93.4°F34.1°C 62.7°F17.1°C 36% 4.3 mph S6.9 kmh S 7.4 mph11.9 kmh 29.41 in995.9 mb 0.00 in0.0 mm 0.00 in0.0 mm 0.00 in0.0 mm
04:50 PM 93.3°F34.1°C 62.7°F17.1°C 36% 1.4 mph SSE2.3 kmh SSE 4.9 mph7.9 kmh 29.41 in995.9 mb 0.00 in0.0 mm 0.00 in0.0 mm 0.00 in0.0 mm
04:55 PM 93.2°F34.0°C 62.6°F17.0°C 36% 2.9 mph SE4.7 kmh SE 9.8 mph15.8 kmh 29.41 in995.9 mb 0.00 in0.0 mm 0.00 in0.0 mm 0.00 in0.0 mm
05:00 PM 93.2°F34.0°C 63.8°F17.7°C 38% 5.5 mph SSE8.9 kmh SSE 9.8 mph15.8 kmh 29.41 in995.9 mb 0.00 in0.0 mm 0.00 in0.0 mm 0.00 in0.0 mm
05:05 PM 93.2°F34.0°C 64.2°F17.9°C 39% 4.3 mph SE6.9 kmh SE 12.3 mph19.8 kmh 29.41 in995.9 mb 0.00 in0.0 mm 0.00 in0.0 mm 0.00 in0.0 mm
05:10 PM 93.0°F33.9°C 63.5°F17.5°C 38% 4.8 mph S7.7 kmh S 7.4 mph11.9 kmh 29.41 in995.9 mb 0.00 in0.0 mm 0.00 in0.0 mm 0.00 in0.0 mm
05:15 PM 92.8°F33.8°C 62.3°F16.8°C 36% 3.2 mph SE5.1 kmh SE 7.4 mph11.9 kmh 29.41 in995.9 mb 0.00 in0.0 mm 0.00 in0.0 mm 0.00 in0.0 mm
05:20 PM 92.8°F33.8°C 62.1°F16.7°C 36% 2.3 mph SE3.7 kmh SE 4.9 mph7.9 kmh 29.40 in995.6 mb 0.00 in0.0 mm 0.00 in0.0 mm 0.00 in0.0 mm
05:25 PM 92.7°F33.7°C 61.8°F16.6°C 36% 1.9 mph S3.1 kmh S 4.9 mph7.9 kmh 29.40 in995.6 mb 0.00 in0.0 mm 0.00 in0.0 mm 0.00 in0.0 mm
05:30 PM 92.7°F33.7°C 61.8°F16.6°C 36% 5.5 mph S8.9 kmh S 9.8 mph15.8 kmh 29.41 in995.9 mb 0.00 in0.0 mm 0.00 in0.0 mm 0.00 in0.0 mm
05:35 PM 92.8°F33.8°C 62.0°F16.7°C 36% 3.2 mph SSE5.1 kmh SSE 7.4 mph11.9 kmh 29.41 in995.9 mb 0.00 in0.0 mm 0.00 in0.0 mm 0.00 in0.0 mm
05:40 PM 92.8°F33.8°C 62.0°F16.7°C 36% 1.7 mph S2.7 kmh S 4.9 mph7.9 kmh 29.41 in995.9 mb 0.00 in0.0 mm 0.00 in0.0 mm 0.00 in0.0 mm
05:45 PM 92.8°F33.8°C 62.3°F16.8°C 36% 5.0 mph SE8.0 kmh SE 9.8 mph15.8 kmh 29.41 in995.9 mb 0.00 in0.0 mm 0.00 in0.0 mm 0.00 in0.0 mm
05:50 PM 92.7°F33.7°C 62.6°F17.0°C 37% 2.8 mph S4.5 kmh S 7.4 mph11.9 kmh 29.41 in995.9 mb 0.00 in0.0 mm 0.00 in0.0 mm 0.00 in0.0 mm
05:55 PM 92.7°F33.7°C 62.4°F16.9°C 37% 3.6 mph SSE5.8 kmh SSE 7.4 mph11.9 kmh 29.41 in995.9 mb 0.00 in0.0 mm 0.00 in0.0 mm 0.00 in0.0 mm
06:00 PM 92.5°F33.6°C 62.4°F16.9°C 37% 1.8 mph SSE2.9 kmh SSE 7.4 mph11.9 kmh 29.40 in995.6 mb 0.00 in0.0 mm 0.00 in0.0 mm 0.00 in0.0 mm
06:05 PM 92.4°F33.6°C 61.9°F16.6°C 36% 3.8 mph SSE6.1 kmh SSE 9.8 mph15.8 kmh 29.40 in995.6 mb 0.00 in0.0 mm 0.00 in0.0 mm 0.00 in0.0 mm
06:10 PM 92.2°F33.4°C 61.8°F16.6°C 36% 3.5 mph SSE5.6 kmh SSE 7.4 mph11.9 kmh 29.40 in995.6 mb 0.00 in0.0 mm 0.00 in0.0 mm 0.00 in0.0 mm
06:15 PM 92.1°F33.4°C 61.6°F16.4°C 36% 1.9 mph SSE3.1 kmh SSE 4.9 mph7.9 kmh 29.40 in995.6 mb 0.00 in0.0 mm 0.00 in0.0 mm 0.00 in0.0 mm
06:20 PM 92.1°F33.4°C 62.0°F16.7°C 37% 2.3 mph S3.7 kmh S 7.4 mph11.9 kmh 29.40 in995.6 mb 0.00 in0.0 mm 0.00 in0.0 mm 0.00 in0.0 mm
06:25 PM 91.9°F33.3°C 62.2°F16.8°C 38% 4.5 mph S7.2 kmh S 7.4 mph11.9 kmh 29.40 in995.6 mb 0.00 in0.0 mm 0.00 in0.0 mm 0.00 in0.0 mm
06:30 PM 91.9°F33.3°C 61.7°F16.5°C 37% 2.8 mph S4.5 kmh S 7.4 mph11.9 kmh 29.40 in995.6 mb 0.00 in0.0 mm 0.00 in0.0 mm 0.00 in0.0 mm
06:35 PM 91.8°F33.2°C 62.1°F16.7°C 37% 3.6 mph S5.8 kmh S 9.8 mph15.8 kmh 29.40 in995.6 mb 0.00 in0.0 mm 0.00 in0.0 mm 0.00 in0.0 mm
06:40 PM 91.7°F33.2°C 61.9°F16.6°C 37% 5.4 mph SSE8.7 kmh SSE 9.8 mph15.8 kmh 29.40 in995.6 mb 0.00 in0.0 mm 0.00 in0.0 mm 0.00 in0.0 mm
06:45 PM 91.4°F33.0°C 62.3°F16.8°C 38% 3.6 mph SSE5.8 kmh SSE 7.4 mph11.9 kmh 29.40 in995.6 mb 0.00 in0.0 mm 0.00 in0.0 mm 0.00 in0.0 mm
06:50 PM 91.1°F32.8°C 62.7°F17.1°C 39% 2.8 mph SSE4.5 kmh SSE 7.4 mph11.9 kmh 29.40 in995.6 mb 0.00 in0.0 mm 0.00 in0.0 mm 0.00 in0.0 mm
06:55 PM 90.9°F32.7°C 62.9°F17.2°C 40% 2.6 mph SE4.2 kmh SE 4.9 mph7.9 kmh 29.40 in995.6 mb 0.00 in0.0 mm 0.00 in0.0 mm 0.00 in0.0 mm
07:00 PM 90.6°F32.6°C 63.0°F17.2°C 40% 3.6 mph S5.8 kmh S 7.4 mph11.9 kmh 29.39 in995.3 mb 0.00 in0.0 mm 0.00 in0.0 mm 0.00 in0.0 mm
07:05 PM 90.4°F32.4°C 62.7°F17.1°C 40% 2.9 mph SSE4.7 kmh SSE 7.4 mph11.9 kmh 29.40 in995.6 mb 0.00 in0.0 mm 0.00 in0.0 mm 0.00 in0.0 mm
07:10 PM 90.2°F32.3°C 63.3°F17.4°C 41% 1.6 mph SSE2.6 kmh SSE 2.5 mph4.0 kmh 29.40 in995.6 mb 0.00 in0.0 mm 0.00 in0.0 mm 0.00 in0.0 mm
07:15 PM 90.0°F32.2°C 63.6°F17.6°C 42% 1.3 mph SSE2.1 kmh SSE 2.5 mph4.0 kmh 29.40 in995.6 mb 0.00 in0.0 mm 0.00 in0.0 mm 0.00 in0.0 mm
07:20 PM 89.9°F32.2°C 64.3°F17.9°C 43% 1.5 mph SSE2.4 kmh SSE 4.9 mph7.9 kmh 29.40 in995.6 mb 0.00 in0.0 mm 0.00 in0.0 mm 0.00 in0.0 mm
07:25 PM 89.7°F32.1°C 64.2°F17.9°C 43% 1.8 mph S2.9 kmh S 4.9 mph7.9 kmh 29.40 in995.6 mb 0.00 in0.0 mm 0.00 in0.0 mm 0.00 in0.0 mm
07:30 PM 89.5°F31.9°C 64.0°F17.8°C 43% 2.0 mph SE3.2 kmh SE 4.9 mph7.9 kmh 29.40 in995.6 mb 0.00 in0.0 mm 0.00 in0.0 mm 0.00 in0.0 mm
07:35 PM 89.2°F31.8°C 63.8°F17.7°C 43% 2.9 mph SSE4.7 kmh SSE 4.9 mph7.9 kmh 29.41 in995.9 mb 0.00 in0.0 mm 0.00 in0.0 mm 0.00 in0.0 mm
07:40 PM 89.1°F31.7°C 64.3°F17.9°C 44% 1.2 mph SSE1.9 kmh SSE 4.9 mph7.9 kmh 29.41 in995.9 mb 0.00 in0.0 mm 0.00 in0.0 mm 0.00 in0.0 mm
07:45 PM 88.9°F31.6°C 64.2°F17.9°C 44% 1.4 mph S2.3 kmh S 2.5 mph4.0 kmh 29.41 in995.9 mb 0.00 in0.0 mm 0.00 in0.0 mm 0.00 in0.0 mm
07:50 PM 88.7°F31.5°C 64.6°F18.1°C 45% 2.0 mph S3.2 kmh S 4.9 mph7.9 kmh 29.41 in995.9 mb 0.00 in0.0 mm 0.00 in0.0 mm 0.00 in0.0 mm
07:55 PM 88.5°F31.4°C 64.6°F18.1°C 45% 1.4 mph SSE2.3 kmh SSE 4.9 mph7.9 kmh 29.41 in995.9 mb 0.00 in0.0 mm 0.00 in0.0 mm 0.00 in0.0 mm
08:00 PM 88.3°F31.3°C 64.9°F18.3°C 46% 1.4 mph S2.3 kmh S 2.5 mph4.0 kmh 29.41 in995.9 mb 0.00 in0.0 mm 0.00 in0.0 mm 0.00 in0.0 mm
08:05 PM 88.3°F31.3°C 64.8°F18.2°C 46% 1.9 mph SE3.1 kmh SE 7.4 mph11.9 kmh 29.42 in996.3 mb 0.00 in0.0 mm 0.00 in0.0 mm 0.00 in0.0 mm
08:10 PM 88.2°F31.2°C 64.8°F18.2°C 46% 2.0 mph SSE3.2 kmh SSE 4.9 mph7.9 kmh 29.42 in996.3 mb 0.00 in0.0 mm 0.00 in0.0 mm 0.00 in0.0 mm
08:15 PM 88.1°F31.2°C 64.7°F18.2°C 46% 1.5 mph S2.4 kmh S 4.9 mph7.9 kmh 29.41 in995.9 mb 0.00 in0.0 mm 0.00 in0.0 mm 0.00 in0.0 mm
08:20 PM 88.0°F31.1°C 65.0°F18.3°C 47% 3.2 mph SSE5.1 kmh SSE 4.9 mph7.9 kmh 29.42 in996.3 mb 0.00 in0.0 mm 0.00 in0.0 mm 0.00 in0.0 mm
08:25 PM 87.9°F31.1°C 64.5°F18.1°C 46% 3.2 mph SSE5.1 kmh SSE 7.4 mph11.9 kmh 29.42 in996.3 mb 0.00 in0.0 mm 0.00 in0.0 mm 0.00 in0.0 mm
08:30 PM 87.8°F31.0°C 64.8°F18.2°C 47% 2.3 mph S3.7 kmh S 4.9 mph7.9 kmh 29.42 in996.3 mb 0.00 in0.0 mm 0.00 in0.0 mm 0.00 in0.0 mm
08:35 PM 87.8°F31.0°C 64.5°F18.1°C 46% 2.8 mph SSE4.5 kmh SSE 4.9 mph7.9 kmh 29.42 in996.3 mb 0.00 in0.0 mm 0.00 in0.0 mm 0.00 in0.0 mm
08:40 PM 87.7°F30.9°C 64.4°F18.0°C 46% 3.2 mph SSE5.1 kmh SSE 4.9 mph7.9 kmh 29.43 in996.6 mb 0.00 in0.0 mm 0.00 in0.0 mm 0.00 in0.0 mm
08:45 PM 87.6°F30.9°C 64.2°F17.9°C 46% 2.7 mph SE4.3 kmh SE 4.9 mph7.9 kmh 29.43 in996.6 mb 0.00 in0.0 mm 0.00 in0.0 mm 0.00 in0.0 mm
08:50 PM 87.6°F30.9°C 64.3°F17.9°C 46% 3.5 mph S5.6 kmh S 7.4 mph11.9 kmh 29.43 in996.6 mb 0.00 in0.0 mm 0.00 in0.0 mm 0.00 in0.0 mm
08:55 PM 87.6°F30.9°C 64.8°F18.2°C 47% 2.9 mph S4.7 kmh S 4.9 mph7.9 kmh 29.43 in996.6 mb 0.00 in0.0 mm 0.00 in0.0 mm 0.00 in0.0 mm
09:00 PM 87.6°F30.9°C 64.8°F18.2°C 47% 2.9 mph SSE4.7 kmh SSE 7.4 mph11.9 kmh 29.43 in996.6 mb 0.00 in0.0 mm 0.00 in0.0 mm 0.00 in0.0 mm
09:05 PM 87.5°F30.8°C 65.4°F18.6°C 48% 1.4 mph SE2.3 kmh SE 4.9 mph7.9 kmh 29.43 in996.6 mb 0.00 in0.0 mm 0.00 in0.0 mm 0.00 in0.0 mm
09:10 PM 87.4°F30.8°C 66.2°F19.0°C 50% 0.8 mph ESE1.3 kmh ESE 2.5 mph4.0 kmh 29.44 in997.0 mb 0.00 in0.0 mm 0.00 in0.0 mm 0.00 in0.0 mm
09:15 PM 87.3°F30.7°C 66.4°F19.1°C 50% 1.9 mph SE3.1 kmh SE 4.9 mph7.9 kmh 29.44 in997.0 mb 0.00 in0.0 mm 0.00 in0.0 mm 0.00 in0.0 mm
09:20 PM 87.2°F30.7°C 66.3°F19.1°C 50% 2.1 mph E3.4 kmh E 4.9 mph7.9 kmh 29.44 in997.0 mb 0.00 in0.0 mm 0.00 in0.0 mm 0.00 in0.0 mm
09:25 PM 87.0°F30.6°C 66.2°F19.0°C 50% 2.8 mph E4.5 kmh E 4.9 mph7.9 kmh 29.44 in997.0 mb 0.00 in0.0 mm 0.00 in0.0 mm 0.00 in0.0 mm
09:30 PM 86.7°F30.4°C 66.8°F19.3°C 52% 2.6 mph ESE4.2 kmh ESE 7.4 mph11.9 kmh 29.45 in997.3 mb 0.00 in0.0 mm 0.00 in0.0 mm 0.00 in0.0 mm
09:35 PM 86.4°F30.2°C 66.8°F19.3°C 52% 2.4 mph ESE3.9 kmh ESE 4.9 mph7.9 kmh 29.45 in997.3 mb 0.00 in0.0 mm 0.00 in0.0 mm 0.00 in0.0 mm
09:40 PM 86.1°F30.1°C 67.0°F19.4°C 53% 2.8 mph SE4.5 kmh SE 4.9 mph7.9 kmh 29.45 in997.3 mb 0.00 in0.0 mm 0.00 in0.0 mm 0.00 in0.0 mm
09:45 PM 85.9°F29.9°C 66.8°F19.3°C 53% 2.6 mph SE4.2 kmh SE 4.9 mph7.9 kmh 29.46 in997.6 mb 0.00 in0.0 mm 0.00 in0.0 mm 0.00 in0.0 mm
09:50 PM 85.7°F29.8°C 66.8°F19.3°C 53% 5.2 mph SE8.4 kmh SE 9.8 mph15.8 kmh 29.46 in997.6 mb 0.00 in0.0 mm 0.00 in0.0 mm 0.00 in0.0 mm
09:55 PM 85.6°F29.8°C 67.0°F19.4°C 54% 5.2 mph SSE8.4 kmh SSE 9.8 mph15.8 kmh 29.46 in997.6 mb 0.00 in0.0 mm 0.00 in0.0 mm 0.00 in0.0 mm
10:00 PM 85.6°F29.8°C 67.2°F19.6°C 54% 4.5 mph S7.2 kmh S 7.4 mph11.9 kmh 29.46 in997.6 mb 0.00 in0.0 mm 0.00 in0.0 mm 0.00 in0.0 mm
10:05 PM 85.6°F29.8°C 67.5°F19.7°C 55% 5.6 mph SE9.0 kmh SE 12.3 mph19.8 kmh 29.47 in998.0 mb 0.00 in0.0 mm 0.00 in0.0 mm 0.00 in0.0 mm
10:10 PM 85.6°F29.8°C 67.7°F19.8°C 55% 3.5 mph SE5.6 kmh SE 7.4 mph11.9 kmh 29.47 in998.0 mb 0.00 in0.0 mm 0.00 in0.0 mm 0.00 in0.0 mm
10:15 PM 85.5°F29.7°C 68.0°F20.0°C 56% 5.2 mph SE8.4 kmh SE 12.3 mph19.8 kmh 29.47 in998.0 mb 0.00 in0.0 mm 0.00 in0.0 mm 0.00 in0.0 mm
10:20 PM 85.5°F29.7°C 68.0°F20.0°C 56% 4.2 mph SE6.8 kmh SE 9.8 mph15.8 kmh 29.47 in998.0 mb 0.00 in0.0 mm 0.00 in0.0 mm 0.00 in0.0 mm
10:25 PM 85.3°F29.6°C 67.9°F19.9°C 56% 3.6 mph SE5.8 kmh SE 7.4 mph11.9 kmh 29.47 in998.0 mb 0.00 in0.0 mm 0.00 in0.0 mm 0.00 in0.0 mm
10:30 PM 85.1°F29.5°C 68.1°F20.1°C 57% 4.0 mph SE6.4 kmh SE 7.4 mph11.9 kmh 29.47 in998.0 mb 0.00 in0.0 mm 0.00 in0.0 mm 0.00 in0.0 mm
10:35 PM 84.9°F29.4°C 67.9°F19.9°C 57% 7.7 mph SE12.4 kmh SE 17.4 mph28.0 kmh 29.47 in998.0 mb 0.00 in0.0 mm 0.00 in0.0 mm 0.00 in0.0 mm
10:40 PM 84.7°F29.3°C 67.8°F19.9°C 57% 7.7 mph SSE12.4 kmh SSE 15.0 mph24.1 kmh 29.47 in998.0 mb 0.00 in0.0 mm 0.00 in0.0 mm 0.00 in0.0 mm
10:45 PM 84.6°F29.2°C 68.1°F20.1°C 58% 4.5 mph SE7.2 kmh SE 9.8 mph15.8 kmh 29.47 in998.0 mb 0.00 in0.0 mm 0.00 in0.0 mm 0.00 in0.0 mm
10:50 PM 84.5°F29.2°C 68.2°F20.1°C 58% 6.9 mph SE11.1 kmh SE 9.8 mph15.8 kmh 29.47 in998.0 mb 0.00 in0.0 mm 0.00 in0.0 mm 0.00 in0.0 mm
10:55 PM 84.4°F29.1°C 68.5°F20.3°C 59% 6.7 mph S10.8 kmh S 12.3 mph19.8 kmh 29.47 in998.0 mb 0.00 in0.0 mm 0.00 in0.0 mm 0.00 in0.0 mm
11:00 PM 84.4°F29.1°C 68.6°F20.3°C 59% 8.4 mph S13.5 kmh S 12.3 mph19.8 kmh 29.47 in998.0 mb 0.00 in0.0 mm 0.00 in0.0 mm 0.00 in0.0 mm
11:05 PM 84.3°F29.1°C 69.2°F20.7°C 61% 7.6 mph SSE12.2 kmh SSE 17.4 mph28.0 kmh 29.47 in998.0 mb 0.00 in0.0 mm 0.00 in0.0 mm 0.00 in0.0 mm
11:10 PM 84.2°F29.0°C 69.3°F20.7°C 61% 4.4 mph SE7.1 kmh SE 12.3 mph19.8 kmh 29.47 in998.0 mb 0.00 in0.0 mm 0.00 in0.0 mm 0.00 in0.0 mm
11:15 PM 84.1°F28.9°C 69.7°F20.9°C 62% 4.2 mph S6.8 kmh S 7.4 mph11.9 kmh 29.47 in998.0 mb 0.00 in0.0 mm 0.00 in0.0 mm 0.00 in0.0 mm
11:20 PM 84.0°F28.9°C 69.6°F20.9°C 62% 6.8 mph S10.9 kmh S 12.3 mph19.8 kmh 29.47 in998.0 mb 0.00 in0.0 mm 0.00 in0.0 mm 0.00 in0.0 mm
11:25 PM 83.8°F28.8°C 69.4°F20.8°C 62% 5.2 mph SSE8.4 kmh SSE 15.0 mph24.1 kmh 29.47 in998.0 mb 0.00 in0.0 mm 0.00 in0.0 mm 0.00 in0.0 mm
11:30 PM 83.7°F28.7°C 69.5°F20.8°C 62% 6.1 mph SSE9.8 kmh SSE 9.8 mph15.8 kmh 29.47 in998.0 mb 0.00 in0.0 mm 0.00 in0.0 mm 0.00 in0.0 mm
11:35 PM 83.6°F28.7°C 69.6°F20.9°C 63% 4.7 mph SSE7.6 kmh SSE 9.8 mph15.8 kmh 29.47 in998.0 mb 0.00 in0.0 mm 0.00 in0.0 mm 0.00 in0.0 mm
11:40 PM 83.4°F28.6°C 69.5°F20.8°C 63% 6.5 mph S10.5 kmh S 9.8 mph15.8 kmh 29.46 in997.6 mb 0.00 in0.0 mm 0.00 in0.0 mm 0.00 in0.0 mm
11:45 PM 83.3°F28.5°C 69.8°F21.0°C 64% 6.4 mph SE10.3 kmh SE 12.3 mph19.8 kmh 29.46 in997.6 mb 0.00 in0.0 mm 0.00 in0.0 mm 0.00 in0.0 mm
11:50 PM 83.1°F28.4°C 69.6°F20.9°C 64% 5.1 mph S8.2 kmh S 9.8 mph15.8 kmh 29.46 in997.6 mb 0.00 in0.0 mm 0.00 in0.0 mm 0.00 in0.0 mm
11:55 PM 83.0°F28.3°C 69.6°F20.9°C 64% 7.7 mph SSE12.4 kmh SSE 12.3 mph19.8 kmh 29.46 in997.6 mb 0.00 in0.0 mm 0.00 in0.0 mm 0.00 in0.0 mm